Archie, Louisiana
Current Conditions -  °F | °C
As of 11:53 PM on Sunday 23 Nov 2014 (Local Time) from KESF Reporting Station
Clear Clear  
Wind Chill: 62°   Ceiling: Unl
Heat Index: 62°   Visibility: 10mi
Dew Point: 57°   Wind: 7mph
Humidity: 84%   Direction: 230°SW
Pressure: 29.66"   Gusts: NA
Location:  31.5028°N, 91.9028°W
Report Text: KESF 240553Z AUTO 23006KT 10SM CLR 17/14 A2966 RMK AO2 SLP043 T01670139 10189 20161 402280161 51014
Loading
Personal Weather Stations






























Interactive Weather Map New forecast layout! Learn more

10-Day Weather Forecast

Advertisements
Track Severe Weather on mobile